createdAt,value
2023-05-01T00:02:46.341Z,15.06
2023-05-01T00:07:49.264Z,15.58
2023-05-01T00:12:51.415Z,16.10
2023-05-01T00:17:54.638Z,15.97
2023-05-01T00:22:57.971Z,15.33
2023-05-01T00:28:00.200Z,14.68
2023-05-01T00:33:02.514Z,13.97
2023-05-01T00:38:04.846Z,14.08
2023-05-01T00:43:07.057Z,14.33
2023-05-01T00:48:11.006Z,14.96
2023-05-01T00:53:13.484Z,15.02
2023-05-01T00:58:18.912Z,15.02
2023-05-01T01:03:21.749Z,15.18
2023-05-01T01:08:32.560Z,14.58
2023-05-01T01:13:54.933Z,14.26
2023-05-01T01:19:38.705Z,15.04
2023-05-01T01:24:59.336Z,15.29
2023-05-01T01:30:32.390Z,14.71
2023-05-01T01:35:37.011Z,14.43
2023-05-01T01:40:53.238Z,14.33
2023-05-01T01:46:03.829Z,14.73
2023-05-01T01:51:13.852Z,15.14
2023-05-01T01:56:20.796Z,15.55
2023-05-01T02:01:25.079Z,14.68
2023-05-01T02:06:29.932Z,14.34
2023-05-01T02:11:33.657Z,15.16
2023-05-01T02:16:37.534Z,15.29
2023-05-01T02:21:41.346Z,14.91
2023-05-01T02:26:49.772Z,14.60
2023-05-01T02:31:52.210Z,14.34
2023-05-01T02:36:54.574Z,14.36
2023-05-01T02:42:01.749Z,14.25
2023-05-01T02:47:07.299Z,14.85
2023-05-01T02:52:11.673Z,14.58
2023-05-01T02:57:14.308Z,14.36
2023-05-01T03:02:16.429Z,14.31
2023-05-01T03:07:18.654Z,14.53
2023-05-01T03:12:21.864Z,15.16
2023-05-01T03:17:24.033Z,15.26
2023-05-01T03:22:33.211Z,14.48
2023-05-01T03:27:35.574Z,14.29
2023-05-01T03:32:37.800Z,14.34
2023-05-01T03:37:42.208Z,14.86
2023-05-01T03:42:44.675Z,14.81
2023-05-01T03:47:54.989Z,14.31
2023-05-01T03:52:57.767Z,13.58
2023-05-01T03:57:59.969Z,13.43
2023-05-01T04:08:05.328Z,14.21
2023-05-01T04:13:07.654Z,14.73
2023-05-01T04:18:10.957Z,15.10
2023-05-01T04:23:13.109Z,14.92
2023-05-01T04:28:15.279Z,14.45
2023-05-01T04:33:17.568Z,14.19
2023-05-01T04:38:19.975Z,14.30
2023-05-01T04:43:24.153Z,14.94
2023-05-01T04:48:26.530Z,15.22
2023-05-01T04:53:29.378Z,14.85
2023-05-01T04:58:32.433Z,14.70
2023-05-01T05:03:41.285Z,14.88
2023-05-01T05:08:45.639Z,14.83
2023-05-01T05:13:48.157Z,14.84
2023-05-01T05:18:50.716Z,14.82
2023-05-01T05:23:54.128Z,14.48
2023-05-01T05:28:56.517Z,14.41
2023-05-01T05:33:58.926Z,14.33
2023-05-01T05:39:01.199Z,14.26
2023-05-01T05:44:03.766Z,14.26
2023-05-01T05:49:06.896Z,14.24
2023-05-01T05:54:09.166Z,14.32
2023-05-01T05:59:11.991Z,14.82
2023-05-01T06:04:17.016Z,14.92
2023-05-01T06:09:20.408Z,14.78
2023-05-01T06:14:22.878Z,14.46
2023-05-01T06:19:25.126Z,14.42
2023-05-01T06:24:36.274Z,14.62
2023-05-01T06:29:38.689Z,15.14
2023-05-01T06:34:40.996Z,15.18
2023-05-01T06:39:43.258Z,14.73
2023-05-01T06:44:45.598Z,14.42
2023-05-01T06:49:47.834Z,14.53
2023-05-01T06:54:49.992Z,14.34
2023-05-01T06:59:52.188Z,13.82
2023-05-01T07:04:54.532Z,13.13
2023-05-01T07:09:57.106Z,12.90
2023-05-01T07:15:00.026Z,13.53
2023-05-01T07:20:02.693Z,13.46
2023-05-01T07:25:05.686Z,13.61
2023-05-01T07:30:09.966Z,13.55
2023-05-01T07:35:12.498Z,14.01
2023-05-01T07:40:14.756Z,14.17
2023-05-01T07:45:17.078Z,14.63
2023-05-01T07:50:20.887Z,14.88
2023-05-01T07:55:23.986Z,14.42
2023-05-01T08:00:26.057Z,14.57
2023-05-01T08:05:28.194Z,14.82
2023-05-01T08:10:30.567Z,14.06
2023-05-01T08:15:32.723Z,14.39
2023-05-01T08:20:36.920Z,14.45
2023-05-01T08:25:39.055Z,13.87
2023-05-01T08:30:41.252Z,14.19
2023-05-01T08:35:43.659Z,14.43
2023-05-01T08:40:53.701Z,14.83
2023-05-01T08:45:59.393Z,15.54
2023-05-01T08:51:04.326Z,15.94
2023-05-01T08:56:08.519Z,16.11
2023-05-01T09:01:16.362Z,16.32
2023-05-01T09:06:20.321Z,17.11
2023-05-01T09:11:24.808Z,17.33
2023-05-01T09:16:27.374Z,17.42
2023-05-01T09:21:32.159Z,17.81
2023-05-01T09:26:37.086Z,18.12
2023-05-01T09:31:39.247Z,18.38
2023-05-01T09:36:47.740Z,19.18
2023-05-01T09:41:52.960Z,20.57
2023-05-01T09:46:55.586Z,22.05
2023-05-01T09:52:12.077Z,22.29
2023-05-01T09:57:14.305Z,21.33
2023-05-01T10:02:30.945Z,20.24
2023-05-01T10:07:34.435Z,19.95
2023-05-01T10:12:37.627Z,19.84
2023-05-01T10:17:41.892Z,19.91
2023-05-01T10:22:44.657Z,20.07
2023-05-01T10:27:48.685Z,20.34
2023-05-01T10:32:52.970Z,20.52
2023-05-01T10:38:07.259Z,20.64
2023-05-01T10:43:31.080Z,20.55
2023-05-01T10:48:42.633Z,20.07
2023-05-01T10:53:46.754Z,19.86
2023-05-01T10:59:06.604Z,20.14
2023-05-01T11:04:23.001Z,19.59
2023-05-01T11:09:49.566Z,19.34
2023-05-01T11:14:55.943Z,19.36
2023-05-01T11:19:58.800Z,19.39
2023-05-01T11:25:04.825Z,19.56
2023-05-01T11:30:08.209Z,19.31
2023-05-01T11:35:30.086Z,19.58
2023-05-01T11:40:35.248Z,19.79
2023-05-01T11:45:38.128Z,19.96
2023-05-01T11:50:40.270Z,19.73
2023-05-01T11:55:42.483Z,19.97
2023-05-01T12:00:44.759Z,19.96
2023-05-01T12:05:49.240Z,20.23
2023-05-01T12:10:59.057Z,20.18
2023-05-01T12:16:01.936Z,20.38
2023-05-01T12:21:04.116Z,20.48
2023-05-01T12:26:25.891Z,20.43
2023-05-01T12:31:29.764Z,20.70
2023-05-01T12:36:35.178Z,20.93
2023-05-01T12:41:46.910Z,21.11
2023-05-01T12:47:04.574Z,20.56
2023-05-01T12:52:09.565Z,20.36
2023-05-01T12:57:15.074Z,20.19
2023-05-01T13:02:18.652Z,20.06
2023-05-01T13:07:21.219Z,19.88
2023-05-01T13:12:25.359Z,19.68
2023-05-01T13:17:31.435Z,19.66
2023-05-01T13:22:36.157Z,19.56
2023-05-01T13:27:38.367Z,19.44
2023-05-01T13:32:42.528Z,19.39
2023-05-01T13:37:44.684Z,19.37
2023-05-01T13:42:48.488Z,19.39
2023-05-01T13:47:52.174Z,19.23
2023-05-01T13:52:54.360Z,18.85
2023-05-01T13:57:56.683Z,19.03
2023-05-01T14:02:59.989Z,19.10
2023-05-01T14:08:02.505Z,19.04
2023-05-01T14:13:05.298Z,18.73
2023-05-01T14:18:08.119Z,19.00
2023-05-01T14:23:10.926Z,19.92
2023-05-01T14:28:13.376Z,22.97
2023-05-01T14:33:16.354Z,23.75
2023-05-01T14:38:21.545Z,23.08
2023-05-01T14:43:23.679Z,21.88
2023-05-01T14:48:34.165Z,20.88
2023-05-01T14:53:36.470Z,20.43
2023-05-01T14:58:39.230Z,19.98
2023-05-01T15:03:43.949Z,19.98
2023-05-01T15:08:47.004Z,19.78
2023-05-01T15:13:50.627Z,19.64
2023-05-01T15:18:52.845Z,18.80
2023-05-01T15:23:55.255Z,17.64
2023-05-01T15:28:57.422Z,16.11
2023-05-01T15:33:59.583Z,15.22
2023-05-01T15:39:01.733Z,15.31
2023-05-01T15:44:06.039Z,15.05
2023-05-01T15:49:10.229Z,14.92
2023-05-01T15:54:12.400Z,15.36
2023-05-01T15:59:14.644Z,15.82
2023-05-01T16:04:16.846Z,16.16
2023-05-01T16:09:19.359Z,16.39
2023-05-01T16:14:21.808Z,16.00
2023-05-01T16:19:24.204Z,15.62
2023-05-01T16:24:26.631Z,15.93
2023-05-01T16:29:29.215Z,15.45
2023-05-01T16:34:31.504Z,15.36
2023-05-01T16:39:38.627Z,14.90
2023-05-01T16:44:41.674Z,14.82
2023-05-01T16:49:44.503Z,15.60
2023-05-01T16:54:46.673Z,16.54
2023-05-01T16:59:49.526Z,16.96
2023-05-01T17:04:52.017Z,16.38
2023-05-01T17:09:55.047Z,15.47
2023-05-01T17:14:57.340Z,14.53
2023-05-01T17:19:59.902Z,14.77
2023-05-01T17:25:04.043Z,14.81
2023-05-01T17:30:07.445Z,15.90
2023-05-01T17:35:10.043Z,16.02
2023-05-01T17:40:12.619Z,15.82
2023-05-01T17:45:14.926Z,15.88
2023-05-01T17:50:17.183Z,15.58
2023-05-01T17:55:19.637Z,16.30
2023-05-01T18:00:23.067Z,16.78
2023-05-01T18:05:25.528Z,15.91
2023-05-01T18:10:31.313Z,15.75
2023-05-01T18:15:33.691Z,16.20
2023-05-01T18:20:36.118Z,15.52
2023-05-01T18:25:39.504Z,15.42
2023-05-01T18:30:41.942Z,15.54
2023-05-01T18:35:44.124Z,15.98
2023-05-01T18:40:47.761Z,16.05
2023-05-01T18:45:49.961Z,15.43
2023-05-01T18:51:07.087Z,15.06
2023-05-01T18:56:09.780Z,14.56
2023-05-01T19:01:12.226Z,14.52
2023-05-01T19:06:14.483Z,14.05
2023-05-01T19:11:18.538Z,13.89
2023-05-01T19:16:20.834Z,13.83
2023-05-01T19:21:23.888Z,13.67
2023-05-01T19:26:26.428Z,13.54
2023-05-01T19:31:28.579Z,13.46
2023-05-01T19:36:30.850Z,13.56
2023-05-01T19:41:33.204Z,13.48
2023-05-01T19:46:35.433Z,13.38
2023-05-01T19:51:38.185Z,13.44
2023-05-01T19:56:40.471Z,13.49
2023-05-01T20:01:42.790Z,14.20
2023-05-01T20:06:45.137Z,15.16
2023-05-01T20:11:48.657Z,15.58
2023-05-01T20:16:52.389Z,15.16
2023-05-01T20:21:54.647Z,14.85
2023-05-01T20:26:58.348Z,15.07
2023-05-01T20:32:00.586Z,15.21
2023-05-01T20:37:03.204Z,14.93
2023-05-01T20:42:05.395Z,14.87
2023-05-01T20:47:07.749Z,14.77
2023-05-01T20:52:10.064Z,15.25
2023-05-01T20:57:12.197Z,15.83
2023-05-01T21:02:16.316Z,16.12
2023-05-01T21:07:18.772Z,15.67
2023-05-01T21:12:21.025Z,14.55
2023-05-01T21:17:23.364Z,14.64
2023-05-01T21:22:26.049Z,14.66
2023-05-01T21:27:28.519Z,15.43
2023-05-01T21:32:40.062Z,15.43
2023-05-01T21:37:43.899Z,15.19
2023-05-01T21:42:46.814Z,15.41
2023-05-01T21:47:51.607Z,15.50
2023-05-01T21:52:53.854Z,15.11
2023-05-01T21:57:58.203Z,14.69
2023-05-01T22:03:05.906Z,14.33
2023-05-01T22:08:08.168Z,13.94
2023-05-01T22:13:11.602Z,13.86
2023-05-01T22:18:17.798Z,14.92
2023-05-01T22:23:20.081Z,15.27
2023-05-01T22:28:22.814Z,15.34
2023-05-01T22:33:25.028Z,15.68
2023-05-01T22:38:27.173Z,15.29
2023-05-01T22:43:29.348Z,15.39
2023-05-01T22:48:32.379Z,15.08
2023-05-01T22:53:34.501Z,14.65
2023-05-01T22:58:37.205Z,14.63
2023-05-01T23:03:39.614Z,15.19
2023-05-01T23:08:41.884Z,15.32
2023-05-01T23:13:49.603Z,15.30
2023-05-01T23:18:52.428Z,15.45
2023-05-01T23:23:54.728Z,15.52
2023-05-01T23:28:57.185Z,14.82
2023-05-01T23:34:02.752Z,14.01
2023-05-01T23:39:05.134Z,14.01
2023-05-01T23:44:08.394Z,13.93
2023-05-01T23:49:10.720Z,14.31
2023-05-01T23:54:12.877Z,14.82
2023-05-01T23:59:15.207Z,14.61
